Time;durP1;ratioP1;P1;durP2;ratioP2;P2;SDS_P1;SDS_P2;PMS_P1;PMS_P2;Temp;Humidity;BMP_temperature;BMP_pressure;BME280_temperature;BME280_humidity;BME280_pressure;Samples;Min_cycle;Max_cycle;Signal;HPM_P1;HPM_P2
2023/11/19 05:02:10;;;;;;;3.47;3.25;;;7.80;99.90;;;;;;5166311;23;20343;-73
2023/11/19 05:04:37;;;;;;;3.20;3.00;;;7.80;99.90;;;;;;4990442;28;20217;-73
2023/11/19 05:07:04;;;;;;;4.85;4.03;;;7.80;99.90;;;;;;4992782;28;20279;-74
2023/11/19 05:09:31;;;;;;;4.25;3.80;;;7.90;99.90;;;;;;4992520;28;20239;-73
2023/11/19 05:11:58;;;;;;;4.80;4.40;;;7.90;99.90;;;;;;4978230;28;20237;-73
2023/11/19 05:14:24;;;;;;;3.78;3.47;;;7.90;99.90;;;;;;4973162;28;20206;-74
2023/11/19 05:16:51;;;;;;;4.65;4.25;;;8.00;99.90;;;;;;4969199;28;20204;-73
2023/11/19 05:19:19;;;;;;;5.28;4.78;;;8.00;99.90;;;;;;4973151;28;20201;-73
2023/11/19 05:21:46;;;;;;;5.28;3.70;;;8.10;99.90;;;;;;4973835;28;20221;-73
2023/11/19 05:24:12;;;;;;;4.93;4.47;;;8.10;99.90;;;;;;4972358;28;20212;-73
2023/11/19 05:26:40;;;;;;;8.13;4.28;;;8.10;99.90;;;;;;4973963;28;20214;-73
2023/11/19 05:29:07;;;;;;;4.78;4.20;;;8.10;99.90;;;;;;4973601;28;20295;-73
2023/11/19 05:31:33;;;;;;;6.53;4.93;;;8.20;99.90;;;;;;4972992;28;20590;-73
2023/11/19 05:34:00;;;;;;;8.10;4.53;;;8.20;99.90;;;;;;4971936;28;20213;-71
2023/11/19 05:36:28;;;;;;;4.18;3.85;;;8.30;99.90;;;;;;4968384;28;20209;-72
2023/11/19 05:38:55;;;;;;;7.63;4.90;;;8.30;99.90;;;;;;4973590;28;20212;-72
2023/11/19 05:41:22;;;;;;;4.60;4.20;;;8.30;99.90;;;;;;4973291;28;20226;-73
2023/11/19 05:43:48;;;;;;;6.80;4.68;;;8.30;99.90;;;;;;4972402;28;20221;-73
2023/11/19 05:46:16;;;;;;;6.63;4.63;;;8.40;99.90;;;;;;4970848;28;20214;-73
2023/11/19 05:48:47;;;;;;;6.32;4.82;;;8.40;99.90;;;;;;4971603;28;20209;-73
2023/11/19 05:51:14;;;;;;;9.07;5.40;;;8.40;99.90;;;;;;4971159;28;20226;-73
2023/11/19 05:53:42;;;;;;;6.18;5.50;;;8.50;99.90;;;;;;4974330;28;20207;-73
2023/11/19 05:56:10;;;;;;;6.68;5.68;;;8.60;99.90;;;;;;4973015;28;20214;-73
2023/11/19 05:58:37;;;;;;;7.35;5.78;;;8.60;99.90;;;;;;4972767;28;20214;-73
2023/11/19 06:01:07;;;;;;;6.45;5.35;;;8.60;99.90;;;;;;4972755;28;20261;-73
2023/11/19 06:03:33;;;;;;;12.55;6.15;;;8.70;99.90;;;;;;4972518;28;20202;-73
2023/11/19 06:06:00;;;;;;;5.35;4.85;;;8.70;99.90;;;;;;4970354;28;20219;-73
2023/11/19 06:08:27;;;;;;;9.07;5.82;;;8.70;99.90;;;;;;4971328;28;20213;-73
2023/11/19 06:10:56;;;;;;;8.80;5.80;;;8.70;99.90;;;;;;4972052;28;20233;-73
2023/11/19 06:13:23;;;;;;;10.90;6.07;;;8.80;99.90;;;;;;4971808;28;20636;-73
2023/11/19 06:15:50;;;;;;;6.03;5.03;;;8.80;99.90;;;;;;4973816;28;20273;-73
2023/11/19 06:18:19;;;;;;;11.55;6.28;;;8.80;99.90;;;;;;4973584;28;20207;-74
2023/11/19 06:20:46;;;;;;;5.70;5.15;;;8.80;99.90;;;;;;4971887;28;20223;-73
2023/11/19 06:23:13;;;;;;;9.10;6.28;;;8.80;99.90;;;;;;4972805;28;20570;-73
2023/11/19 06:25:40;;;;;;;10.43;5.50;;;8.90;99.90;;;;;;4972216;28;20210;-73
2023/11/19 06:28:08;;;;;;;13.40;6.57;;;8.90;99.90;;;;;;4971456;28;20211;-73
2023/11/19 06:30:44;;;;;;;10.50;6.80;;;8.90;99.90;;;;;;4971456;28;20631;-73
2023/11/19 06:33:14;;;;;;;6.25;4.90;;;9.00;99.90;;;;;;4971397;28;20213;-73
2023/11/19 06:35:40;;;;;;;10.18;5.85;;;9.00;99.90;;;;;;4972248;28;20207;-73
2023/11/19 06:38:07;;;;;;;10.10;6.78;;;9.10;99.90;;;;;;4965854;28;20208;-72
2023/11/19 06:40:35;;;;;;;8.75;5.95;;;9.10;99.90;;;;;;4971949;28;20222;-73
2023/11/19 06:43:03;;;;;;;11.27;5.60;;;9.10;99.90;;;;;;4972087;28;20212;-72
2023/11/19 06:45:31;;;;;;;10.70;7.45;;;9.20;99.90;;;;;;4972052;28;20217;-73
2023/11/19 06:47:58;;;;;;;13.73;5.90;;;9.20;99.90;;;;;;4971959;28;20211;-73
2023/11/19 06:50:25;;;;;;;11.13;5.95;;;9.20;99.90;;;;;;4971595;28;20227;-73
2023/11/19 06:52:51;;;;;;;12.80;6.47;;;9.30;99.90;;;;;;4970284;28;20215;-73
2023/11/19 06:55:18;;;;;;;10.98;7.35;;;9.30;99.90;;;;;;4971740;28;20822;-73
2023/11/19 06:57:45;;;;;;;9.25;5.85;;;9.40;99.90;;;;;;4972132;28;20216;-73
2023/11/19 07:00:13;;;;;;;14.98;6.85;;;9.60;99.90;;;;;;4970524;28;20310;-73
2023/11/19 07:02:41;;;;;;;16.35;7.85;;;9.70;99.90;;;;;;4970658;28;20911;-73
2023/11/19 07:05:08;;;;;;;17.48;9.68;;;9.80;99.90;;;;;;4970919;28;20208;-73
2023/11/19 07:07:35;;;;;;;26.38;8.25;;;10.00;99.90;;;;;;4971930;28;20203;-73
2023/11/19 07:10:03;;;;;;;7.68;6.10;;;10.10;99.90;;;;;;4966333;28;20534;-73
2023/11/19 07:12:29;;;;;;;10.80;6.43;;;10.20;99.90;;;;;;4970338;28;20310;-73
2023/11/19 07:14:56;;;;;;;14.40;7.05;;;10.20;99.90;;;;;;4971664;28;20210;-72
2023/11/19 07:17:24;;;;;;;8.05;6.63;;;10.30;99.90;;;;;;4971463;28;20203;-73
2023/11/19 07:19:51;;;;;;;15.55;7.50;;;10.40;99.90;;;;;;4970679;28;20568;-73
2023/11/19 07:22:18;;;;;;;12.77;5.70;;;10.50;99.90;;;;;;4972127;28;20744;-72
2023/11/19 07:24:45;;;;;;;17.45;6.22;;;10.60;99.90;;;;;;4969975;28;20212;-73
2023/11/19 07:27:12;;;;;;;12.45;7.18;;;10.60;99.90;;;;;;4972328;28;20254;-73
2023/11/19 07:29:40;;;;;;;19.83;10.63;;;10.70;99.90;;;;;;4970378;28;20212;-73
2023/11/19 07:32:08;;;;;;;11.82;5.40;;;10.60;99.90;;;;;;4970398;28;20638;-74
2023/11/19 07:34:35;;;;;;;16.25;7.43;;;10.70;99.90;;;;;;4969965;28;20240;-73
2023/11/19 07:37:04;;;;;;;13.68;6.43;;;10.70;99.90;;;;;;4971962;28;20212;-73
2023/11/19 07:39:31;;;;;;;16.42;6.25;;;10.70;99.90;;;;;;4971504;28;20577;-73
2023/11/19 07:41:57;;;;;;;10.30;6.10;;;10.70;99.90;;;;;;4969438;28;20570;-73
2023/11/19 07:44:24;;;;;;;9.82;7.07;;;10.70;99.90;;;;;;4964913;28;20862;-73
2023/11/19 07:46:51;;;;;;;9.53;6.37;;;10.70;99.90;;;;;;4972013;28;20315;-73
2023/11/19 07:49:18;;;;;;;18.15;6.10;;;10.80;99.90;;;;;;4968850;28;20965;-73
2023/11/19 07:51:44;;;;;;;8.73;5.50;;;10.80;99.90;;;;;;4971675;28;20238;-73
2023/11/19 07:54:13;;;;;;;11.88;5.70;;;10.80;99.90;;;;;;4971336;28;20247;-73
2023/11/19 07:56:40;;;;;;;12.40;4.65;;;10.80;99.90;;;;;;4968275;28;20271;-73
2023/11/19 07:59:07;;;;;;;8.60;4.07;;;10.80;99.90;;;;;;4967403;28;20216;-73
2023/11/19 08:01:34;;;;;;;6.97;3.50;;;10.80;99.90;;;;;;4969432;28;20256;-72
2023/11/19 08:04:01;;;;;;;11.75;4.85;;;10.90;99.90;;;;;;4969467;28;20208;-73
2023/11/19 08:06:28;;;;;;;5.72;3.90;;;10.90;99.90;;;;;;4970757;28;20204;-73
2023/11/19 08:08:55;;;;;;;8.85;4.38;;;10.90;99.90;;;;;;4970636;28;20536;-72
2023/11/19 08:11:23;;;;;;;9.60;3.80;;;10.90;99.90;;;;;;4966419;28;20858;-72
2023/11/19 08:13:50;;;;;;;11.32;4.57;;;10.90;99.90;;;;;;4967766;28;20281;-72
2023/11/19 08:16:17;;;;;;;9.93;3.93;;;11.00;99.90;;;;;;4969772;28;20203;-72
2023/11/19 08:18:44;;;;;;;13.37;4.50;;;11.10;99.90;;;;;;4965152;28;20924;-72
2023/11/19 08:21:11;;;;;;;10.27;4.17;;;11.20;99.90;;;;;;4971314;28;20484;-72
2023/11/19 08:23:38;;;;;;;12.80;4.37;;;11.30;99.90;;;;;;4970844;28;20464;-72
2023/11/19 08:26:05;;;;;;;10.63;4.93;;;11.30;99.90;;;;;;4966187;28;20787;-72
2023/11/19 08:28:34;;;;;;;11.57;4.37;;;11.30;99.90;;;;;;4967294;28;20823;-72
2023/11/19 08:31:00;;;;;;;11.37;4.23;;;11.30;99.90;;;;;;4963273;28;20511;-72
2023/11/19 08:33:27;;;;;;;6.83;3.23;;;11.30;99.90;;;;;;4965618;28;20479;-73
2023/11/19 08:35:54;;;;;;;7.87;3.70;;;11.30;99.90;;;;;;4973643;28;20467;-73
2023/11/19 08:38:21;;;;;;;16.30;6.43;;;11.40;99.90;;;;;;4973531;28;20523;-73
2023/11/19 08:40:48;;;;;;;11.20;4.53;;;11.30;99.90;;;;;;4974883;28;20244;-73
2023/11/19 08:43:15;;;;;;;18.53;5.50;;;11.30;99.90;;;;;;4974843;28;20463;-73
2023/11/19 08:45:43;;;;;;;9.82;3.88;;;11.30;99.90;;;;;;4974943;28;20570;-73
2023/11/19 08:48:10;;;;;;;16.92;4.97;;;11.30;99.90;;;;;;4972240;28;20263;-73
2023/11/19 08:50:36;;;;;;;9.95;4.68;;;11.30;99.90;;;;;;4974503;28;20254;-72
2023/11/19 08:53:06;;;;;;;6.90;4.00;;;11.30;99.90;;;;;;4974955;28;20227;-73
2023/11/19 08:55:33;;;;;;;14.57;4.25;;;11.30;99.90;;;;;;4972880;28;20478;-73
2023/11/19 08:58:01;;;;;;;15.07;4.60;;;11.40;99.90;;;;;;4974901;28;20598;-73
2023/11/19 09:00:27;;;;;;;10.60;3.80;;;11.30;99.90;;;;;;4972528;28;20467;-73
2023/11/19 09:02:55;;;;;;;19.63;5.17;;;11.30;99.90;;;;;;4972626;28;20460;-73
2023/11/19 09:05:22;;;;;;;21.13;4.80;;;11.30;99.90;;;;;;4974256;28;20486;-73
2023/11/19 09:07:49;;;;;;;8.93;4.78;;;11.30;99.90;;;;;;4974574;28;20543;-74
2023/11/19 09:10:16;;;;;;;14.00;4.40;;;11.40;99.90;;;;;;4973753;28;20216;-72
2023/11/19 09:12:42;;;;;;;11.73;3.92;;;11.40;99.90;;;;;;4973706;28;20468;-72
2023/11/19 09:15:11;;;;;;;10.83;4.00;;;11.30;99.90;;;;;;4971649;28;20217;-73
2023/11/19 09:17:38;;;;;;;8.70;3.60;;;11.30;99.90;;;;;;4973613;28;20559;-73
2023/11/19 09:20:07;;;;;;;10.65;4.82;;;11.30;99.90;;;;;;4968807;28;20469;-73
2023/11/19 09:22:34;;;;;;;18.85;4.72;;;11.30;99.90;;;;;;4972437;28;20256;-73
2023/11/19 09:25:01;;;;;;;16.20;4.50;;;11.30;99.90;;;;;;4972258;28;20216;-73
2023/11/19 09:27:27;;;;;;;12.65;4.50;;;11.40;99.90;;;;;;4972863;28;20234;-73
2023/11/19 09:29:58;;;;;;;6.88;3.85;;;11.40;99.90;;;;;;4972155;28;20212;-73
2023/11/19 09:32:24;;;;;;;14.55;4.35;;;11.40;99.90;;;;;;4972809;28;20264;-73
2023/11/19 09:34:51;;;;;;;16.40;5.50;;;11.40;99.90;;;;;;4974355;28;20235;-73
2023/11/19 09:37:19;;;;;;;3.80;3.03;;;11.40;99.90;;;;;;4973314;28;20479;-73
2023/11/19 09:39:46;;;;;;;11.35;3.83;;;11.50;99.90;;;;;;4967513;28;20480;-73
2023/11/19 09:42:13;;;;;;;10.80;3.73;;;11.50;99.90;;;;;;4969689;28;20232;-73
2023/11/19 09:44:41;;;;;;;17.83;3.47;;;11.50;99.90;;;;;;4970582;28;20471;-73
2023/11/19 09:47:09;;;;;;;14.33;4.00;;;11.50;99.90;;;;;;4968616;28;20479;-72
2023/11/19 09:49:37;;;;;;;16.27;3.60;;;11.60;99.90;;;;;;4971541;28;20476;-73
2023/11/19 09:52:04;;;;;;;21.23;3.50;;;11.60;99.90;;;;;;4972721;28;20509;-73
2023/11/19 09:54:33;;;;;;;9.97;3.17;;;11.60;99.90;;;;;;4971748;28;20463;-73
2023/11/19 09:57:03;;;;;;;11.30;3.97;;;11.60;99.90;;;;;;4972992;28;20479;-73
2023/11/19 09:59:30;;;;;;;10.87;3.73;;;11.60;99.90;;;;;;4972632;28;20466;-73
2023/11/19 10:01:57;;;;;;;8.00;2.70;;;11.70;99.90;;;;;;4973363;28;20484;-73
2023/11/19 10:04:26;;;;;;;19.37;3.60;;;11.70;99.90;;;;;;4972404;28;20471;-73
2023/11/19 10:06:53;;;;;;;15.73;4.13;;;11.70;99.90;;;;;;4972598;28;20464;-73
2023/11/19 10:09:19;;;;;;;7.15;3.20;;;11.60;99.90;;;;;;4971453;28;20542;-73
2023/11/19 10:11:47;;;;;;;19.07;4.03;;;11.60;99.90;;;;;;4972181;28;20224;-73
2023/11/19 10:14:15;;;;;;;12.00;4.43;;;11.60;99.90;;;;;;4971968;28;20483;-73
2023/11/19 10:16:42;;;;;;;16.70;4.20;;;11.70;99.90;;;;;;4969882;28;20486;-73
2023/11/19 10:19:19;;;;;;;11.10;4.77;;;11.70;99.90;;;;;;4973569;28;20219;-73
2023/11/19 10:21:47;;;;;;;8.40;3.50;;;11.70;99.90;;;;;;4966426;28;20490;-73
2023/11/19 10:24:14;;;;;;;14.30;3.73;;;11.70;99.90;;;;;;4971962;28;20464;-74
2023/11/19 10:26:42;;;;;;;9.83;3.80;;;11.80;99.90;;;;;;4972312;28;20503;-74
2023/11/19 10:29:14;;;;;;;12.10;3.50;;;11.80;99.90;;;;;;4972247;28;20472;-74
2023/11/19 10:31:41;;;;;;;14.50;3.80;;;11.80;99.90;;;;;;4970897;28;20496;-73
2023/11/19 10:34:25;;;;;;;7.70;2.80;;;11.70;99.90;;;;;;4972367;28;20946;-73
2023/11/19 10:36:52;;;;;;;5.50;3.33;;;11.70;99.90;;;;;;4965793;28;20503;-74
2023/11/19 10:39:20;;;;;;;12.10;4.50;;;11.70;99.90;;;;;;4972203;28;20853;-73
2023/11/19 10:41:47;;;;;;;7.93;3.50;;;11.70;99.90;;;;;;4971223;28;20589;-73
2023/11/19 10:44:33;;;;;;;6.30;4.33;;;11.80;99.90;;;;;;4969982;28;20555;-73
2023/11/19 10:47:00;;;;;;;10.00;3.80;;;11.90;99.90;;;;;;4964983;28;20482;-73
2023/11/19 10:49:27;;;;;;;15.93;4.47;;;11.90;99.90;;;;;;4971244;28;20473;-73
2023/11/19 10:51:57;;;;;;;16.00;3.10;;;11.90;99.90;;;;;;4969123;28;20498;-73
2023/11/19 10:54:24;;;;;;;13.03;5.20;;;11.90;99.90;;;;;;4966923;28;20810;-74
2023/11/19 10:56:55;;;;;;;9.20;3.60;;;11.90;99.90;;;;;;4971155;28;20471;-74
2023/11/19 10:59:25;;;;;;;12.33;3.80;;;12.00;99.90;;;;;;4973733;28;20482;-73
2023/11/19 11:01:55;;;;;;;7.87;4.10;;;12.00;99.90;;;;;;4972113;28;20487;-74
2023/11/19 11:04:24;;;;;;;12.77;3.33;;;12.00;99.90;;;;;;4971169;28;20534;-73
2023/11/19 11:06:52;;;;;;;8.00;2.70;;;12.00;99.90;;;;;;4972257;28;20475;-73
2023/11/19 11:09:19;;;;;;;10.50;3.43;;;12.00;99.90;;;;;;4972291;28;20469;-73
2023/11/19 11:11:48;;;;;;;8.33;2.93;;;11.90;99.90;;;;;;4966960;28;20492;-74
2023/11/19 11:14:16;;;;;;;4.93;2.60;;;11.80;99.90;;;;;;4969477;28;20486;-74
2023/11/19 11:16:45;;;;;;;7.00;2.93;;;11.80;99.90;;;;;;4965102;28;20209;-75
2023/11/19 11:19:13;;;;;;;5.30;2.23;;;11.70;99.90;;;;;;4971056;28;20488;-74
2023/11/19 11:21:44;;;;;;;6.17;2.90;;;11.70;99.90;;;;;;4964353;28;20488;-74
2023/11/19 11:24:41;;;;;;;7.93;3.00;;;11.70;99.90;;;;;;4964714;28;20855;-74
2023/11/19 11:27:38;;;;;;;10.90;4.23;;;11.70;99.90;;;;;;4971831;28;20467;-75
2023/11/19 11:30:20;;;;;;;10.50;2.30;;;11.80;99.90;;;;;;4983200;23;20495;-74
2023/11/19 11:32:56;;;;;;;11.17;2.80;;;11.90;99.90;;;;;;4969555;28;20510;-74
2023/11/19 11:35:38;;;;;;;5.80;2.10;;;11.90;99.90;;;;;;4962936;28;20459;-74
2023/11/19 11:38:08;;;;;;;9.00;2.33;;;11.90;99.90;;;;;;4966895;28;20493;-74
2023/11/19 11:40:35;;;;;;;10.20;3.27;;;11.90;99.90;;;;;;4964467;28;20855;-75
2023/11/19 11:43:03;;;;;;;4.90;2.67;;;11.90;99.90;;;;;;4962032;28;20822;-74
2023/11/19 11:45:36;;;;;;;7.90;2.90;;;12.00;99.90;;;;;;4968109;28;20955;-75
2023/11/19 11:48:12;;;;;;;10.13;3.60;;;12.00;99.90;;;;;;4967630;28;20515;-68
2023/11/19 11:50:54;;;;;;;6.27;2.87;;;12.10;99.90;;;;;;4970789;28;20486;-75
2023/11/19 11:53:24;;;;;;;8.33;2.53;;;12.10;99.90;;;;;;4971776;28;20487;-76
2023/11/19 11:55:56;;;;;;;14.50;3.57;;;12.20;99.90;;;;;;4969790;28;20468;-76
2023/11/19 11:58:26;;;;;;;4.50;3.13;;;12.20;99.90;;;;;;4970907;28;20491;-76
2023/11/19 12:00:53;;;;;;;16.53;2.90;;;12.30;99.90;;;;;;4972048;28;20913;-76
2023/11/19 12:03:22;;;;;;;9.47;2.77;;;12.30;99.90;;;;;;4970828;28;20460;-74
2023/11/19 12:05:50;;;;;;;9.50;4.00;;;12.20;99.90;;;;;;4972771;28;20480;-74
2023/11/19 12:08:21;;;;;;;5.93;3.00;;;12.10;99.90;;;;;;4976028;28;20534;-75
2023/11/19 12:10:49;;;;;;;11.00;2.90;;;12.10;99.90;;;;;;4974573;28;20483;-75
2023/11/19 12:13:18;;;;;;;7.40;2.30;;;12.00;99.90;;;;;;4974844;28;20506;-76
2023/11/19 12:16:11;;;;;;;8.50;2.83;;;12.00;99.90;;;;;;4974906;28;20891;-77
2023/11/19 12:18:41;;;;;;;10.53;3.30;;;12.10;99.90;;;;;;4974040;28;20476;-72
2023/11/19 12:21:09;;;;;;;8.10;2.40;;;12.20;99.90;;;;;;4975035;28;20488;-72
2023/11/19 12:23:36;;;;;;;5.83;2.00;;;12.20;99.90;;;;;;4975158;28;20460;-73
2023/11/19 12:26:03;;;;;;;9.87;2.53;;;12.30;99.90;;;;;;4973794;28;20483;-73
2023/11/19 12:28:30;;;;;;;9.60;5.47;;;12.30;99.90;;;;;;4976980;28;20497;-73
2023/11/19 12:31:09;;;;;;;5.13;3.37;;;12.30;99.90;;;;;;4972232;28;20495;-74
2023/11/19 12:33:37;;;;;;;10.07;3.97;;;12.30;99.90;;;;;;4974085;28;20824;-73
2023/11/19 12:36:07;;;;;;;4.03;1.87;;;12.30;99.90;;;;;;4973882;28;20469;-77
2023/11/19 12:38:34;;;;;;;10.83;1.93;;;12.40;99.90;;;;;;4976178;28;20562;-73
2023/11/19 12:41:05;;;;;;;8.53;2.33;;;12.40;99.90;;;;;;4972847;28;20491;-73
2023/11/19 12:43:31;;;;;;;4.97;2.63;;;12.40;99.90;;;;;;4972426;28;20939;-72
2023/11/19 12:45:58;;;;;;;8.90;2.23;;;12.30;99.90;;;;;;4969176;28;20475;-73
2023/11/19 12:48:25;;;;;;;10.30;2.80;;;12.30;99.90;;;;;;4970858;28;21086;-74
2023/11/19 12:50:57;;;;;;;4.63;1.90;;;12.30;99.90;;;;;;4974503;28;20488;-74
2023/11/19 12:53:27;;;;;;;3.23;2.33;;;12.30;99.90;;;;;;4972321;28;20501;-74
2023/11/19 12:55:56;;;;;;;12.53;2.50;;;12.30;99.90;;;;;;4970062;28;20835;-74
2023/11/19 12:58:30;;;;;;;6.80;3.93;;;12.20;99.90;;;;;;4972169;28;20472;-74
2023/11/19 13:01:01;;;;;;;12.17;3.70;;;12.20;99.90;;;;;;4973969;28;20494;-74
2023/11/19 13:03:32;;;;;;;4.47;3.10;;;12.20;99.90;;;;;;4974782;28;20562;-74
2023/11/19 13:06:07;;;;;;;5.87;2.40;;;12.20;99.90;;;;;;4975393;28;20460;-74
2023/11/19 13:08:39;;;;;;;6.17;3.90;;;12.20;99.90;;;;;;4972119;28;20563;-75
2023/11/19 13:11:07;;;;;;;9.03;3.13;;;12.20;99.90;;;;;;4977006;28;20487;-74
2023/11/19 13:13:51;;;;;;;10.90;3.30;;;12.20;99.90;;;;;;4976288;28;20599;-73
2023/11/19 13:16:18;;;;;;;6.27;2.23;;;12.20;99.90;;;;;;4975664;28;20826;-73
2023/11/19 13:18:45;;;;;;;4.43;2.90;;;12.10;99.90;;;;;;4969297;28;20959;-73
2023/11/19 13:21:13;;;;;;;10.17;3.30;;;12.10;99.90;;;;;;4977847;28;20480;-73
2023/11/19 13:23:41;;;;;;;6.60;3.53;;;12.10;99.90;;;;;;4974649;28;20805;-73
2023/11/19 13:26:08;;;;;;;10.20;2.60;;;12.10;99.90;;;;;;4973797;28;20478;-73
2023/11/19 13:28:34;;;;;;;7.93;2.90;;;12.00;99.90;;;;;;4976100;28;20460;-74
2023/11/19 13:31:01;;;;;;;8.23;3.53;;;12.10;99.90;;;;;;4975863;28;20591;-74
2023/11/19 13:33:29;;;;;;;13.33;2.90;;;12.10;99.90;;;;;;4968954;28;20493;-74
2023/11/19 13:35:56;;;;;;;7.73;2.93;;;12.00;99.90;;;;;;4984853;28;20478;-74
2023/11/19 13:38:23;;;;;;;2.83;2.63;;;12.00;99.90;;;;;;4976768;28;20550;-74
2023/11/19 13:40:51;;;;;;;10.07;3.23;;;12.00;99.90;;;;;;4975877;28;20731;-74
2023/11/19 13:43:18;;;;;;;8.83;3.07;;;11.90;99.90;;;;;;4970682;28;20482;-74
2023/11/19 13:45:44;;;;;;;9.50;2.23;;;11.90;99.90;;;;;;4975410;28;20947;-74
2023/11/19 13:48:11;;;;;;;5.87;3.07;;;11.90;99.90;;;;;;4975569;28;20465;-75
2023/11/19 13:50:39;;;;;;;11.60;4.03;;;11.90;99.90;;;;;;4975099;28;20878;-74
2023/11/19 13:53:05;;;;;;;8.20;2.50;;;11.90;99.90;;;;;;4975386;28;20487;-74
2023/11/19 13:55:32;;;;;;;10.43;3.47;;;11.90;99.90;;;;;;4981034;28;20466;-74
2023/11/19 13:58:00;;;;;;;12.25;3.10;;;11.90;99.90;;;;;;4969593;28;20465;-73
2023/11/19 14:00:28;;;;;;;14.03;4.10;;;12.00;99.90;;;;;;4968022;28;20315;-74
2023/11/19 14:02:55;;;;;;;3.20;2.50;;;11.90;99.90;;;;;;4961610;28;20511;-72
2023/11/19 14:05:23;;;;;;;12.60;3.53;;;11.90;99.90;;;;;;4974302;28;20908;-73
2023/11/19 14:07:51;;;;;;;7.03;2.77;;;11.90;99.90;;;;;;4974134;28;20880;-73
2023/11/19 14:10:18;;;;;;;10.53;6.97;;;11.80;99.90;;;;;;4966578;28;20575;-74
2023/11/19 14:12:45;;;;;;;11.90;5.33;;;11.80;99.90;;;;;;4966572;28;20539;-74
2023/11/19 14:15:13;;;;;;;15.23;5.75;;;11.80;99.90;;;;;;4966838;28;20568;-74
2023/11/19 14:17:41;;;;;;;16.07;4.33;;;11.80;99.90;;;;;;4976703;28;20255;-74
2023/11/19 14:20:12;;;;;;;11.87;3.17;;;11.80;99.90;;;;;;4975775;28;20491;-74
2023/11/19 14:22:39;;;;;;;6.47;2.80;;;11.80;99.90;;;;;;4973902;28;20462;-73
2023/11/19 14:25:09;;;;;;;9.80;3.57;;;11.80;99.90;;;;;;4974730;28;20215;-74
2023/11/19 14:27:36;;;;;;;11.30;4.33;;;11.80;99.90;;;;;;4971818;28;20570;-73
2023/11/19 14:30:03;;;;;;;6.63;2.57;;;11.70;99.90;;;;;;4973821;28;20491;-74
2023/11/19 14:32:31;;;;;;;6.60;3.37;;;11.70;99.90;;;;;;4972740;28;20498;-74
2023/11/19 14:34:58;;;;;;;6.10;3.23;;;11.70;99.90;;;;;;4973161;28;20468;-75
2023/11/19 14:37:25;;;;;;;12.90;3.60;;;11.60;99.90;;;;;;4966544;28;20526;-73
2023/11/19 14:39:52;;;;;;;20.98;4.65;;;11.60;99.90;;;;;;4963919;28;20500;-73
2023/11/19 14:42:19;;;;;;;9.75;3.28;;;11.60;99.90;;;;;;4968841;28;20736;-74
2023/11/19 14:44:45;;;;;;;8.57;3.90;;;11.60;99.90;;;;;;4968425;28;20644;-73
2023/11/19 14:47:12;;;;;;;10.17;3.37;;;11.60;99.90;;;;;;4969313;28;20478;-73
2023/11/19 14:49:40;;;;;;;13.40;3.10;;;11.60;99.90;;;;;;4968076;28;20496;-73
2023/11/19 14:52:07;;;;;;;4.60;2.30;;;11.60;99.90;;;;;;4967725;28;20243;-73
2023/11/19 14:54:33;;;;;;;3.90;2.60;;;11.60;99.90;;;;;;4968316;28;20471;-73
2023/11/19 14:57:00;;;;;;;9.07;3.15;;;11.60;99.90;;;;;;4957610;28;20467;-73
2023/11/19 14:59:28;;;;;;;6.03;2.42;;;11.60;99.90;;;;;;4968675;28;20835;-73
2023/11/19 15:01:54;;;;;;;10.10;2.10;;;11.50;99.90;;;;;;4973543;28;20209;-72
2023/11/19 15:04:21;;;;;;;4.78;1.60;;;11.50;99.90;;;;;;4967757;28;20468;-72
2023/11/19 15:06:49;;;;;;;2.93;1.87;;;11.50;99.90;;;;;;4967093;28;20664;-73
2023/11/19 15:09:16;;;;;;;6.45;2.30;;;11.50;99.90;;;;;;4970759;28;20479;-73
2023/11/19 15:11:43;;;;;;;4.83;2.33;;;11.40;99.90;;;;;;4971486;28;20205;-72
2023/11/19 15:14:10;;;;;;;4.13;2.00;;;11.40;99.90;;;;;;4973600;28;20492;-73
2023/11/19 15:16:37;;;;;;;6.68;1.88;;;11.40;99.90;;;;;;4971556;28;20589;-72
2023/11/19 15:19:04;;;;;;;2.53;2.33;;;11.40;99.90;;;;;;4972535;28;20216;-72
2023/11/19 15:21:31;;;;;;;3.22;2.50;;;11.30;99.90;;;;;;4966627;28;20212;-73
2023/11/19 15:24:00;;;;;;;7.03;3.05;;;11.20;99.90;;;;;;4969948;28;20197;-72
2023/11/19 15:26:27;;;;;;;2.17;1.77;;;11.20;99.90;;;;;;4963227;28;20672;-72
2023/11/19 15:28:55;;;;;;;2.50;1.00;;;11.10;99.90;;;;;;4971994;28;20200;-73
2023/11/19 15:31:22;;;;;;;4.53;1.65;;;11.10;99.90;;;;;;4970877;28;20233;-73
2023/11/19 15:33:50;;;;;;;5.60;1.13;;;11.10;99.90;;;;;;4971034;28;20594;-73
2023/11/19 15:36:17;;;;;;;3.53;2.08;;;11.10;99.90;;;;;;4964330;28;20221;-73
2023/11/19 15:38:44;;;;;;;1.30;1.20;;;11.10;99.90;;;;;;4969773;28;20204;-74
2023/11/19 15:41:12;;;;;;;5.30;1.30;;;11.00;99.90;;;;;;4969600;28;20229;-73
2023/11/19 15:43:39;;;;;;;3.10;1.50;;;11.00;99.90;;;;;;4965358;28;20233;-74
2023/11/19 15:46:07;;;;;;;1.92;1.63;;;11.00;99.90;;;;;;4965560;28;20841;-74
2023/11/19 15:48:34;;;;;;;5.00;1.95;;;10.90;99.90;;;;;;4965872;28;20782;-74
2023/11/19 15:51:00;;;;;;;1.50;1.40;;;10.90;99.90;;;;;;4963006;28;20272;-74
2023/11/19 15:53:27;;;;;;;3.30;1.50;;;10.80;99.90;;;;;;4966645;28;20247;-74
2023/11/19 15:55:54;;;;;;;3.03;1.88;;;10.70;99.90;;;;;;4972279;28;20204;-74
2023/11/19 15:58:22;;;;;;;8.95;3.53;;;10.70;99.90;;;;;;4971994;28;20554;-74
2023/11/19 16:00:49;;;;;;;4.15;1.90;;;10.60;99.90;;;;;;4971996;28;20691;-74
2023/11/19 16:03:16;;;;;;;10.77;4.72;;;10.60;99.90;;;;;;4971727;28;20204;-74
2023/11/19 16:05:43;;;;;;;7.20;2.05;;;10.60;99.90;;;;;;4973956;28;20212;-74
2023/11/19 16:08:10;;;;;;;3.03;2.47;;;10.50;99.90;;;;;;4975094;28;20205;-74
2023/11/19 16:10:39;;;;;;;3.30;1.85;;;10.50;99.90;;;;;;4973980;28;20318;-74
2023/11/19 16:13:06;;;;;;;3.97;1.92;;;10.50;99.90;;;;;;4973935;28;21002;-74
2023/11/19 16:15:35;;;;;;;1.85;1.65;;;10.50;99.90;;;;;;4974217;28;20208;-74
2023/11/19 16:18:01;;;;;;;1.40;1.30;;;10.50;99.90;;;;;;4973804;28;20693;-74
2023/11/19 16:20:28;;;;;;;2.60;1.73;;;10.50;99.90;;;;;;4967078;28;20227;-74
2023/11/19 16:22:55;;;;;;;2.10;1.50;;;10.50;99.90;;;;;;4974187;28;20245;-74
2023/11/19 16:25:22;;;;;;;3.80;1.00;;;10.50;99.90;;;;;;4972128;28;20583;-74
2023/11/19 16:27:50;;;;;;;4.05;1.65;;;10.50;99.90;;;;;;4969661;28;20211;-74
2023/11/19 16:30:17;;;;;;;1.10;1.10;;;10.50;99.90;;;;;;4974511;28;20232;-74
2023/11/19 16:32:54;;;;;;;4.45;2.58;;;10.50;99.90;;;;;;4970879;28;20737;-74
2023/11/19 16:35:21;;;;;;;3.97;2.03;;;10.50;99.90;;;;;;4966033;28;20212;-75
2023/11/19 16:37:48;;;;;;;2.50;1.85;;;10.50;99.90;;;;;;4961939;28;20212;-75
2023/11/19 16:40:15;;;;;;;6.00;1.88;;;10.50;99.90;;;;;;4973316;28;20239;-76
2023/11/19 16:42:42;;;;;;;11.20;3.53;;;10.40;99.90;;;;;;4959213;28;20227;-75
2023/11/19 16:45:10;;;;;;;9.25;3.20;;;10.40;99.90;;;;;;4970341;28;20217;-75
2023/11/19 16:47:37;;;;;;;4.22;2.45;;;10.40;99.90;;;;;;4966607;28;20291;-74
2023/11/19 16:50:07;;;;;;;2.50;2.30;;;10.40;99.90;;;;;;4965949;28;20806;-74
2023/11/19 16:52:34;;;;;;;8.68;2.92;;;10.40;99.90;;;;;;4971978;28;20212;-73
2023/11/19 16:55:11;;;;;;;3.50;1.92;;;10.40;99.90;;;;;;4971499;28;20293;-74
2023/11/19 16:57:43;;;;;;;3.20;2.80;;;10.40;99.90;;;;;;4973546;28;20706;-74
2023/11/19 17:00:12;;;;;;;5.57;3.28;;;10.40;99.90;;;;;;4974323;28;20290;-73
2023/11/19 17:02:41;;;;;;;3.72;3.30;;;10.30;99.90;;;;;;4975825;28;20263;-72
2023/11/19 17:05:10;;;;;;;6.60;2.95;;;10.30;99.90;;;;;;4977050;28;20196;-73
2023/11/19 17:07:39;;;;;;;4.45;2.10;;;10.30;99.90;;;;;;4974203;28;20216;-74
2023/11/19 17:10:08;;;;;;;1.90;1.70;;;10.30;99.90;;;;;;4968283;28;20268;-73
2023/11/19 17:12:35;;;;;;;8.93;2.92;;;10.30;99.90;;;;;;4975232;28;20216;-73
2023/11/19 17:15:04;;;;;;;3.47;2.47;;;10.20;99.90;;;;;;4976121;28;20227;-73
2023/11/19 17:17:35;;;;;;;3.42;2.83;;;10.30;99.90;;;;;;4975319;28;20215;-74
2023/11/19 17:20:04;;;;;;;5.25;2.55;;;10.20;99.90;;;;;;4976357;28;20272;-73
2023/11/19 17:22:34;;;;;;;4.72;2.63;;;10.30;99.90;;;;;;4976720;28;20218;-73
2023/11/19 17:25:02;;;;;;;3.58;2.47;;;10.30;99.90;;;;;;4975417;28;20218;-73
2023/11/19 17:27:29;;;;;;;12.57;2.70;;;10.20;99.90;;;;;;4970398;28;20687;-73
2023/11/19 17:29:56;;;;;;;6.80;2.63;;;10.30;99.90;;;;;;4987499;23;20237;-71
2023/11/19 17:32:23;;;;;;;2.72;2.55;;;10.30;99.90;;;;;;4977496;28;20279;-70
2023/11/19 17:35:05;;;;;;;5.53;2.35;;;10.20;99.90;;;;;;4977923;28;20235;-70
2023/11/19 17:37:34;;;;;;;4.25;2.58;;;10.20;99.90;;;;;;4970394;28;20236;-71
2023/11/19 17:40:02;;;;;;;4.28;2.85;;;10.20;99.90;;;;;;4966436;28;20981;-71
2023/11/19 17:42:28;;;;;;;7.68;2.85;;;10.20;99.90;;;;;;4957378;28;20207;-71
2023/11/19 17:44:58;;;;;;;4.65;2.63;;;10.20;99.90;;;;;;4965999;28;20632;-71
2023/11/19 17:47:25;;;;;;;6.97;3.60;;;10.20;99.90;;;;;;4965146;28;20624;-72
2023/11/19 17:49:53;;;;;;;4.03;3.60;;;10.20;99.90;;;;;;4963798;28;20244;-73
2023/11/19 17:52:20;;;;;;;6.15;2.55;;;10.20;99.90;;;;;;4964690;28;20277;-71